createdAt,value
2022-11-21T00:01:46.458Z,100044.59
2022-11-21T00:04:20.284Z,100044.88
2022-11-21T00:06:55.301Z,100039.75
2022-11-21T00:09:29.705Z,100041.41
2022-11-21T00:12:03.327Z,100045.34
2022-11-21T00:14:37.160Z,100045.09
2022-11-21T00:17:11.098Z,100039.06
2022-11-21T00:19:44.940Z,100032.94
2022-11-21T00:22:19.884Z,100028.97
2022-11-21T00:24:54.430Z,100028.97
2022-11-21T00:27:28.324Z,100029.88
2022-11-21T00:30:02.118Z,100035.63
2022-11-21T00:32:36.052Z,100030.38
2022-11-21T00:35:10.091Z,100031.41
2022-11-21T00:37:45.154Z,100032.97
2022-11-21T00:40:19.246Z,100032.97
2022-11-21T00:42:52.882Z,100023.38
2022-11-21T00:45:26.785Z,100017.34
2022-11-21T00:48:00.354Z,100013.00
2022-11-21T00:50:34.222Z,100005.97
2022-11-21T00:53:09.246Z,100011.97
2022-11-21T00:55:43.653Z,100008.53
2022-11-21T00:58:17.511Z,100008.25
2022-11-21T01:00:51.443Z,100013.22
2022-11-21T01:03:25.184Z,100004.53
2022-11-21T01:06:02.574Z,100002.59
2022-11-21T01:08:39.514Z,100007.44
2022-11-21T01:11:14.951Z,100007.44
2022-11-21T01:13:49.918Z,100016.00
2022-11-21T01:16:25.682Z,100007.56
2022-11-21T01:18:59.561Z,100014.47
2022-11-21T01:21:33.548Z,100010.13
2022-11-21T01:24:11.935Z,100011.03
2022-11-21T01:26:45.772Z,100010.91
2022-11-21T01:29:19.507Z,100002.31
2022-11-21T01:31:53.203Z,100009.09
2022-11-21T01:34:27.037Z,100006.38
2022-11-21T01:37:01.249Z,100010.75
2022-11-21T01:39:36.301Z,100010.91
2022-11-21T01:42:13.730Z,100017.94
2022-11-21T01:44:50.346Z,100012.06
2022-11-21T01:47:24.180Z,100017.44
2022-11-21T01:49:57.899Z,100024.50
2022-11-21T01:52:34.954Z,100024.50
2022-11-21T01:55:12.159Z,100023.31
2022-11-21T01:57:49.544Z,100022.91
2022-11-21T02:00:25.854Z,100022.91
2022-11-21T02:03:04.500Z,100027.13
2022-11-21T02:05:40.159Z,100024.56
2022-11-21T02:08:18.896Z,100015.38
2022-11-21T02:11:03.974Z,100022.16
2022-11-21T02:13:37.877Z,100025.34
2022-11-21T02:16:11.488Z,100022.78
2022-11-21T02:18:45.488Z,100025.94
2022-11-21T02:21:29.650Z,100012.13
2022-11-21T02:24:09.858Z,100023.22
2022-11-21T02:26:47.676Z,100022.97
2022-11-21T02:29:21.591Z,100016.94
2022-11-21T02:31:55.106Z,100021.31
2022-11-21T02:34:29.003Z,100013.63
2022-11-21T02:37:03.502Z,100011.06
2022-11-21T02:39:38.885Z,100018.34
2022-11-21T02:42:20.921Z,100019.84
2022-11-21T02:45:07.470Z,100018.56
2022-11-21T02:47:42.830Z,100012.16
2022-11-21T02:50:23.934Z,100015.75
2022-11-21T02:52:57.588Z,100012.72
2022-11-21T02:55:31.300Z,100012.44
2022-11-21T02:58:06.902Z,100011.28
2022-11-21T03:00:43.096Z,100009.00
2022-11-21T03:03:16.937Z,100002.22
2022-11-21T03:05:50.735Z,100000.28
2022-11-21T03:08:24.263Z,100003.47
2022-11-21T03:10:58.007Z,100002.44
2022-11-21T03:13:33.001Z,99996.28
2022-11-21T03:16:06.951Z,99991.94
2022-11-21T03:18:40.525Z,99998.72
2022-11-21T03:21:14.307Z,99992.69
2022-11-21T03:23:47.912Z,99984.00
2022-11-21T03:26:21.705Z,99978.44
2022-11-21T03:28:56.542Z,99979.81
2022-11-21T03:31:30.263Z,99981.06
2022-11-21T03:34:04.139Z,99974.16
2022-11-21T03:36:37.884Z,99979.53
2022-11-21T03:39:11.362Z,99979.97
2022-11-21T03:41:45.158Z,99983.56
2022-11-21T03:44:20.125Z,99983.09
2022-11-21T03:46:53.836Z,99989.09
2022-11-21T03:49:27.753Z,99986.56
2022-11-21T03:52:01.529Z,99984.75
2022-11-21T03:54:35.112Z,99984.59
2022-11-21T03:57:09.012Z,99993.91
2022-11-21T03:59:43.947Z,99981.13
2022-11-21T04:02:17.690Z,99992.56
2022-11-21T04:04:51.383Z,99987.59
2022-11-21T04:07:25.949Z,99992.69
2022-11-21T04:09:59.614Z,99985.66
2022-11-21T04:12:33.441Z,99988.97
2022-11-21T04:15:13.345Z,99987.75
2022-11-21T04:17:47.443Z,99998.75
2022-11-21T04:20:21.214Z,100002.94
2022-11-21T04:22:54.983Z,99997.28
2022-11-21T04:25:28.692Z,100002.25
2022-11-21T04:28:03.938Z,99994.59
2022-11-21T04:30:38.939Z,99995.50
2022-11-21T04:33:13.440Z,99997.28
2022-11-21T04:35:48.271Z,99995.34
2022-11-21T04:38:22.049Z,99998.53
2022-11-21T04:40:55.590Z,99998.53
2022-11-21T04:43:29.431Z,100010.13
2022-11-21T04:46:04.386Z,100016.00
2022-11-21T04:48:38.258Z,100016.91
2022-11-21T04:51:11.896Z,100015.84
2022-11-21T04:53:45.875Z,100019.44
2022-11-21T04:56:19.601Z,100005.78
2022-11-21T04:58:53.708Z,100007.25
2022-11-21T05:01:28.781Z,100007.13
2022-11-21T05:04:02.578Z,100012.22
2022-11-21T05:06:36.139Z,100002.63
2022-11-21T05:09:09.919Z,100004.91
2022-11-21T05:12:01.653Z,100005.38
2022-11-21T05:14:35.400Z,100014.56
2022-11-21T05:17:10.431Z,100007.38
2022-11-21T05:19:44.215Z,100007.84
2022-11-21T05:22:17.859Z,100008.28
2022-11-21T05:24:51.528Z,99996.28
2022-11-21T05:27:25.121Z,100008.28
2022-11-21T05:29:58.845Z,100004.84
2022-11-21T05:32:33.849Z,100010.72
2022-11-21T05:35:08.351Z,100020.03
2022-11-21T05:37:41.887Z,100019.56
2022-11-21T05:40:16.180Z,100014.59
2022-11-21T05:43:18.962Z,100007.09
2022-11-21T05:45:53.017Z,100005.44
2022-11-21T05:48:27.946Z,100008.00
2022-11-21T05:51:01.676Z,100003.66
2022-11-21T05:53:35.855Z,100006.34
2022-11-21T05:56:11.876Z,100000.63
2022-11-21T05:58:45.927Z,100005.09
2022-11-21T06:01:40.121Z,100014.56
2022-11-21T06:04:14.044Z,100010.78
2022-11-21T06:06:47.931Z,100012.72
2022-11-21T06:09:21.531Z,100009.13
2022-11-21T06:11:55.270Z,100003.53
2022-11-21T06:14:29.036Z,100007.03
2022-11-21T06:17:02.981Z,100006.44
2022-11-21T06:19:38.110Z,100006.75
2022-11-21T06:22:12.111Z,100009.16
2022-11-21T06:24:45.804Z,100000.34
2022-11-21T06:27:19.722Z,100001.09
2022-11-21T06:29:53.354Z,99999.25
2022-11-21T06:32:27.287Z,99991.78
2022-11-21T06:35:02.246Z,99998.81
2022-11-21T06:37:36.189Z,99998.38
2022-11-21T06:40:11.188Z,100001.22
2022-11-21T06:42:45.037Z,100003.94
2022-11-21T06:45:18.799Z,100008.13
2022-11-21T06:47:52.672Z,100005.09
2022-11-21T06:50:28.023Z,100004.06
2022-11-21T06:53:02.062Z,100003.47
2022-11-21T06:55:35.804Z,100011.59
2022-11-21T06:58:09.589Z,100011.88
2022-11-21T07:00:44.303Z,100017.31
2022-11-21T07:03:18.381Z,100017.13
2022-11-21T07:05:58.496Z,100012.34
2022-11-21T07:08:34.183Z,100012.63
2022-11-21T07:11:24.501Z,100016.50
2022-11-21T07:13:58.868Z,100010.97
2022-11-21T07:16:32.467Z,100004.69
2022-11-21T07:19:06.483Z,100008.75
2022-11-21T07:21:43.127Z,100012.03
2022-11-21T07:24:17.045Z,100003.47
2022-11-21T07:26:50.692Z,100006.03
2022-11-21T07:29:24.698Z,100009.47
2022-11-21T07:31:58.428Z,100007.09
2022-11-21T07:34:32.130Z,100016.69
2022-11-21T07:37:07.145Z,100016.25
2022-11-21T07:39:41.061Z,100006.78
2022-11-21T07:42:14.755Z,100003.03
2022-11-21T07:44:48.767Z,100011.00
2022-11-21T07:47:22.259Z,100011.59
2022-11-21T07:49:55.985Z,100017.44
2022-11-21T07:52:31.094Z,100015.50
2022-11-21T07:55:06.146Z,100012.50
2022-11-21T07:57:39.945Z,100018.63
2022-11-21T08:00:15.217Z,100010.22
2022-11-21T08:02:48.892Z,100013.53
2022-11-21T08:05:22.909Z,100011.59
2022-11-21T08:07:58.047Z,100014.16
2022-11-21T08:10:31.859Z,100012.38
2022-11-21T08:13:05.438Z,100011.13
2022-11-21T08:15:39.584Z,100003.94
2022-11-21T08:18:15.314Z,100010.09
2022-11-21T08:20:49.344Z,100001.25
2022-11-21T08:23:24.280Z,100003.53
2022-11-21T08:25:58.127Z,99998.59
2022-11-21T08:28:31.761Z,100004.34
2022-11-21T08:31:06.943Z,100001.72
2022-11-21T08:33:40.555Z,99994.78
2022-11-21T08:36:14.300Z,100002.16
2022-11-21T08:38:49.250Z,100003.94
2022-11-21T08:41:40.462Z,100002.00
2022-11-21T08:44:14.490Z,99995.66
2022-11-21T08:46:48.409Z,99991.38
2022-11-21T08:49:21.995Z,99992.63
2022-11-21T08:51:56.153Z,99985.38
2022-11-21T08:54:31.407Z,99981.72
2022-11-21T08:57:05.447Z,99983.19
2022-11-21T08:59:39.598Z,99989.34
2022-11-21T09:02:15.153Z,99990.91
2022-11-21T09:04:50.802Z,99993.47
2022-11-21T09:07:26.159Z,99993.31
2022-11-21T09:10:01.980Z,99996.44
2022-11-21T09:12:37.436Z,99987.28
2022-11-21T09:15:30.233Z,99985.47
2022-11-21T09:18:08.084Z,99988.00
2022-11-21T09:20:45.663Z,99991.59
2022-11-21T09:23:20.866Z,100000.56
2022-11-21T09:25:56.431Z,100007.97
2022-11-21T09:28:30.290Z,100004.56
2022-11-21T09:31:05.007Z,99999.25
2022-11-21T09:33:38.925Z,100003.44
2022-11-21T09:36:12.661Z,100003.22
2022-11-21T09:38:46.875Z,100002.03
2022-11-21T09:41:49.867Z,100009.59
2022-11-21T09:44:51.085Z,100011.91
2022-11-21T09:47:27.886Z,100005.75
2022-11-21T09:50:03.106Z,100011.53
2022-11-21T09:52:42.658Z,100000.88
2022-11-21T09:55:25.175Z,100002.66
2022-11-21T09:58:03.726Z,100000.28
2022-11-21T10:00:37.366Z,100001.03
2022-11-21T10:03:16.682Z,100003.81
2022-11-21T10:05:59.428Z,100005.41
2022-11-21T10:08:42.731Z,100009.25
2022-11-21T10:11:25.309Z,100004.22
2022-11-21T10:14:11.145Z,99996.91
2022-11-21T10:16:53.511Z,99995.91
2022-11-21T10:19:53.828Z,100005.53
2022-11-21T10:22:43.441Z,99998.72
2022-11-21T10:25:26.944Z,99992.59
2022-11-21T10:28:06.056Z,99985.16
2022-11-21T10:30:45.161Z,99993.97
2022-11-21T10:33:27.091Z,99985.94
2022-11-21T10:36:07.037Z,99983.59
2022-11-21T10:38:44.308Z,99986.28
2022-11-21T10:41:24.377Z,99976.44
2022-11-21T10:44:29.507Z,99985.38
2022-11-21T10:47:14.994Z,99984.47
2022-11-21T10:49:50.474Z,99979.59
2022-11-21T10:52:28.415Z,99976.00
2022-11-21T10:55:06.917Z,99976.91
2022-11-21T10:57:45.259Z,99975.78
2022-11-21T11:00:25.323Z,99978.13
2022-11-21T11:03:07.110Z,99970.19
2022-11-21T11:05:41.581Z,99969.69
2022-11-21T11:08:16.021Z,99968.34
2022-11-21T11:11:03.644Z,99969.22
2022-11-21T11:13:56.301Z,99966.38
2022-11-21T11:16:34.068Z,99961.81
2022-11-21T11:19:32.676Z,99965.16
2022-11-21T11:22:28.405Z,99961.13
2022-11-21T11:25:05.725Z,99966.84
2022-11-21T11:27:39.510Z,99960.78
2022-11-21T11:30:16.634Z,99953.16
2022-11-21T11:32:50.454Z,99953.97
2022-11-21T11:35:28.776Z,99954.47
2022-11-21T11:38:05.835Z,99959.84
2022-11-21T11:40:43.923Z,99954.97
2022-11-21T11:43:49.144Z,99949.63
2022-11-21T11:46:55.806Z,99947.97
2022-11-21T11:49:57.835Z,99949.22
2022-11-21T11:52:37.237Z,99944.84
2022-11-21T11:55:19.797Z,99944.84
2022-11-21T11:57:57.959Z,99937.50
2022-11-21T12:00:40.609Z,99934.50
2022-11-21T12:03:19.993Z,99929.34
2022-11-21T12:06:03.567Z,99936.16
2022-11-21T12:08:54.135Z,99921.88
2022-11-21T12:11:52.326Z,99914.81
2022-11-21T12:14:57.931Z,99900.25
2022-11-21T12:17:38.546Z,99890.41
2022-11-21T12:20:18.904Z,99885.59
2022-11-21T12:22:55.869Z,99886.94
2022-11-21T12:25:34.914Z,99879.88
2022-11-21T12:28:20.197Z,99877.44
2022-11-21T12:31:04.669Z,99873.28
2022-11-21T12:33:47.012Z,99873.28
2022-11-21T12:36:35.649Z,99865.94
2022-11-21T12:39:34.348Z,99863.44
2022-11-21T12:42:34.535Z,99867.81
2022-11-21T12:45:27.262Z,99850.81
2022-11-21T12:48:33.043Z,99855.16
2022-11-21T12:52:00.706Z,99855.50
2022-11-21T12:55:01.711Z,99851.38
2022-11-21T12:57:47.976Z,99841.41
2022-11-21T13:00:28.141Z,99841.84
2022-11-21T13:03:39.098Z,99850.03
2022-11-21T13:06:18.872Z,99845.97
2022-11-21T13:08:55.265Z,99835.56
2022-11-21T13:11:52.756Z,99835.69
2022-11-21T13:14:32.673Z,99829.75
2022-11-21T13:17:23.144Z,99818.06
2022-11-21T13:19:59.547Z,99828.34
2022-11-21T13:22:57.061Z,99820.50
2022-11-21T13:25:47.428Z,99826.19
2022-11-21T13:28:37.258Z,99810.88
2022-11-21T13:31:34.369Z,99820.25
2022-11-21T13:34:35.982Z,99818.25
2022-11-21T13:37:09.761Z,99812.09
2022-11-21T13:39:43.772Z,99809.88
2022-11-21T13:42:35.153Z,99815.13
2022-11-21T13:45:43.602Z,99814.41
2022-11-21T13:51:56.124Z,99819.22
2022-11-21T13:55:02.524Z,99822.31
2022-11-21T13:57:53.184Z,99825.31
2022-11-21T14:00:43.837Z,99826.09
2022-11-21T14:03:50.323Z,99825.53
2022-11-21T14:06:35.049Z,99824.19
2022-11-21T14:09:21.349Z,99817.03
2022-11-21T14:11:58.092Z,99823.63
2022-11-21T14:14:37.788Z,99817.88
2022-11-21T14:17:36.842Z,99819.31
2022-11-21T14:20:17.239Z,99821.91
2022-11-21T14:23:04.340Z,99824.91
2022-11-21T14:25:49.120Z,99811.16
2022-11-21T14:28:25.632Z,99830.69
2022-11-21T14:31:02.002Z,99828.91
2022-11-21T14:33:37.604Z,99817.06
2022-11-21T14:36:15.696Z,99821.19
2022-11-21T14:39:13.865Z,99811.59
2022-11-21T14:41:50.743Z,99806.56
2022-11-21T14:44:24.426Z,99799.28
2022-11-21T14:47:15.484Z,99795.56
2022-11-21T14:49:52.201Z,99807.16
2022-11-21T14:52:29.093Z,99810.41
2022-11-21T14:58:03.232Z,99812.50
2022-11-21T15:00:58.470Z,99809.56
2022-11-21T15:03:32.216Z,99811.00
2022-11-21T15:06:11.684Z,99813.97
2022-11-21T15:09:33.360Z,99802.47
2022-11-21T15:11:48.092Z,99804.25
2022-11-21T15:14:26.956Z,99799.78
2022-11-21T15:17:04.220Z,99790.41
2022-11-21T15:19:39.455Z,99790.56
2022-11-21T15:22:25.350Z,99787.66
2022-11-21T15:25:08.155Z,99783.31
2022-11-21T15:27:42.678Z,99784.63
2022-11-21T15:30:27.888Z,99779.38
2022-11-21T15:33:04.047Z,99771.66
2022-11-21T15:35:47.928Z,99765.28
2022-11-21T15:38:28.877Z,99761.31
2022-11-21T15:41:11.618Z,99767.00
2022-11-21T15:43:48.233Z,99772.78
2022-11-21T15:46:23.259Z,99764.72
2022-11-21T15:48:58.608Z,99755.50
2022-11-21T15:52:05.618Z,99755.16
2022-11-21T15:54:29.926Z,99761.31
2022-11-21T15:57:03.545Z,99764.28
2022-11-21T15:59:37.406Z,99760.56
2022-11-21T16:02:14.330Z,99766.13
2022-11-21T16:04:49.476Z,99753.16
2022-11-21T16:07:24.628Z,99751.00
2022-11-21T16:09:58.542Z,99742.94
2022-11-21T16:12:32.220Z,99748.59
2022-11-21T16:15:06.700Z,99746.81
2022-11-21T16:17:41.597Z,99746.69
2022-11-21T16:20:15.663Z,99742.72
2022-11-21T16:22:50.733Z,99729.88
2022-11-21T16:25:25.190Z,99733.63
2022-11-21T16:28:02.885Z,99734.00
2022-11-21T16:30:39.930Z,99729.19
2022-11-21T16:33:13.538Z,99720.09
2022-11-21T16:35:47.618Z,99716.78
2022-11-21T16:38:23.441Z,99715.22
2022-11-21T16:40:59.112Z,99709.47
2022-11-21T16:43:33.030Z,99705.63
2022-11-21T16:46:09.308Z,99709.63
2022-11-21T16:48:42.808Z,99701.94
2022-11-21T16:51:19.758Z,99706.41
2022-11-21T16:53:54.688Z,99698.59
2022-11-21T16:56:29.000Z,99697.22
2022-11-21T16:59:02.556Z,99702.88
2022-11-21T17:01:36.407Z,99705.44
2022-11-21T17:04:15.583Z,99703.88
2022-11-21T17:06:51.078Z,99711.69
2022-11-21T17:09:26.055Z,99722.72
2022-11-21T17:12:00.107Z,99719.38
2022-11-21T17:14:33.856Z,99716.44
2022-11-21T17:17:07.582Z,99736.69
2022-11-21T17:19:41.053Z,99728.09
2022-11-21T17:22:16.907Z,99732.31
2022-11-21T17:24:54.106Z,99735.41
2022-11-21T17:27:28.102Z,99735.28
2022-11-21T17:30:01.705Z,99743.09
2022-11-21T17:32:36.219Z,99740.75
2022-11-21T17:35:11.205Z,99739.63
2022-11-21T17:37:45.190Z,99736.16
2022-11-21T17:40:20.214Z,99733.47
2022-11-21T17:42:53.969Z,99733.63
2022-11-21T17:45:27.495Z,99724.91
2022-11-21T17:48:01.644Z,99721.06
2022-11-21T17:50:35.261Z,99718.88
2022-11-21T17:53:09.134Z,99727.22
2022-11-21T17:55:44.102Z,99722.56
2022-11-21T17:58:17.966Z,99719.63
2022-11-21T18:00:55.503Z,99727.19
2022-11-21T18:03:30.550Z,99723.59
2022-11-21T18:06:06.313Z,99719.25
2022-11-21T18:08:42.226Z,99714.13
2022-11-21T18:11:21.114Z,99702.50
2022-11-21T18:13:55.433Z,99700.44
2022-11-21T18:16:31.976Z,99704.38
2022-11-21T18:19:05.782Z,99695.31
2022-11-21T18:21:39.548Z,99692.50
2022-11-21T18:24:13.579Z,99692.59
2022-11-21T18:26:48.573Z,99683.75
2022-11-21T18:29:39.995Z,99679.28
2022-11-21T18:32:13.966Z,99684.41
2022-11-21T18:34:47.746Z,99682.22
2022-11-21T18:37:21.556Z,99670.47
2022-11-21T18:39:55.531Z,99666.13
2022-11-21T18:42:32.667Z,99668.75
2022-11-21T18:45:08.280Z,99648.31
2022-11-21T18:47:42.252Z,99653.28
2022-11-21T18:50:16.980Z,99637.19
2022-11-21T18:52:50.697Z,99639.09
2022-11-21T18:55:27.255Z,99622.50
2022-11-21T18:58:02.273Z,99613.00
2022-11-21T19:00:36.042Z,99620.84
2022-11-21T19:03:11.154Z,99612.34
2022-11-21T19:05:44.936Z,99613.38
2022-11-21T19:08:18.580Z,99608.53
2022-11-21T19:10:52.871Z,99595.88
2022-11-21T19:13:29.553Z,99593.72
2022-11-21T19:16:03.569Z,99582.88
2022-11-21T19:18:41.228Z,99572.66
2022-11-21T19:21:17.430Z,99567.53
2022-11-21T19:23:51.103Z,99563.47
2022-11-21T19:26:25.308Z,99559.13
2022-11-21T19:29:00.363Z,99548.13
2022-11-21T19:31:37.734Z,99554.66
2022-11-21T19:34:14.871Z,99552.22
2022-11-21T19:36:48.817Z,99548.00
2022-11-21T19:39:22.448Z,99542.38
2022-11-21T19:41:56.255Z,99539.56
2022-11-21T19:44:31.113Z,99534.50
2022-11-21T19:47:04.910Z,99538.94
2022-11-21T19:49:38.501Z,99542.81
2022-11-21T19:52:12.251Z,99543.91
2022-11-21T19:54:46.011Z,99553.13
2022-11-21T19:57:20.013Z,99550.34
2022-11-21T19:59:54.964Z,99542.69
2022-11-21T20:02:28.849Z,99551.09
2022-11-21T20:05:02.561Z,99551.09
2022-11-21T20:07:36.545Z,99561.94
2022-11-21T20:10:10.662Z,99553.91
2022-11-21T20:12:44.440Z,99547.91
2022-11-21T20:15:19.384Z,99563.13
2022-11-21T20:17:53.654Z,99561.44
2022-11-21T20:20:27.241Z,99561.59
2022-11-21T20:23:01.397Z,99562.47
2022-11-21T20:25:35.001Z,99558.91
2022-11-21T20:28:11.779Z,99561.84
2022-11-21T20:30:47.050Z,99556.34
2022-11-21T20:33:20.930Z,99550.72
2022-11-21T20:35:54.507Z,99558.91
2022-11-21T20:38:28.193Z,99552.50
2022-11-21T20:41:02.052Z,99557.88
2022-11-21T20:44:10.482Z,99568.59
2022-11-21T20:46:30.742Z,99570.78
2022-11-21T20:49:04.518Z,99576.53
2022-11-21T20:54:32.395Z,99576.69
2022-11-21T20:57:10.414Z,99579.59
2022-11-21T20:59:48.285Z,99575.25
2022-11-21T21:02:23.521Z,99579.59
2022-11-21T21:04:57.355Z,99579.72
2022-11-21T21:07:30.914Z,99582.28
2022-11-21T21:10:05.422Z,99572.69
2022-11-21T21:12:39.179Z,99576.25
2022-11-21T21:15:14.317Z,99570.66
2022-11-21T21:17:49.269Z,99578.44
2022-11-21T21:20:23.251Z,99577.81
2022-11-21T21:22:56.890Z,99575.88
2022-11-21T21:25:30.646Z,99566.31
2022-11-21T21:28:04.374Z,99554.16
2022-11-21T21:30:40.753Z,99534.13
2022-11-21T21:33:16.458Z,99531.94
2022-11-21T21:35:50.332Z,99539.09
2022-11-21T21:38:23.888Z,99528.25
2022-11-21T21:40:57.784Z,99533.25
2022-11-21T21:43:31.494Z,99521.59
2022-11-21T21:46:06.252Z,99515.72
2022-11-21T21:48:42.177Z,99523.53
2022-11-21T21:51:18.418Z,99535.91
2022-11-21T21:53:53.754Z,99530.03
2022-11-21T21:56:29.436Z,99535.78
2022-11-21T21:59:03.426Z,99529.78
2022-11-21T22:01:37.231Z,99542.69
2022-11-21T22:04:13.527Z,99540.88
2022-11-21T22:06:47.400Z,99539.88
2022-11-21T22:09:21.329Z,99538.84
2022-11-21T22:11:55.104Z,99548.56
2022-11-21T22:14:29.012Z,99541.78
2022-11-21T22:17:03.156Z,99552.38
2022-11-21T22:19:38.227Z,99557.75
2022-11-21T22:22:12.101Z,99553.53
2022-11-21T22:24:45.744Z,99553.94
2022-11-21T22:27:19.703Z,99543.59
2022-11-21T22:29:53.408Z,99547.94
2022-11-21T22:32:27.264Z,99560.72
2022-11-21T22:35:02.312Z,99542.19
2022-11-21T22:37:36.219Z,99550.97
2022-11-21T22:40:10.971Z,99559.41
2022-11-21T22:42:44.776Z,99555.50
2022-11-21T22:45:18.471Z,99533.38
2022-11-21T22:47:52.439Z,99538.22
2022-11-21T22:50:27.375Z,99537.72
2022-11-21T22:53:01.214Z,99530.31
2022-11-21T22:55:34.753Z,99524.19
2022-11-21T22:58:08.538Z,99517.91
2022-11-21T23:00:42.035Z,99523.53
2022-11-21T23:03:16.039Z,99522.25
2022-11-21T23:05:59.186Z,99523.41
2022-11-21T23:08:33.790Z,99503.56
2022-11-21T23:11:09.642Z,99506.00
2022-11-21T23:13:45.235Z,99491.56
2022-11-21T23:16:19.439Z,99499.13
2022-11-21T23:18:53.894Z,99494.88
2022-11-21T23:21:28.959Z,99494.13
2022-11-21T23:24:02.627Z,99506.00
2022-11-21T23:26:36.367Z,99494.53
2022-11-21T23:29:10.437Z,99503.44
2022-11-21T23:31:43.891Z,99497.44
2022-11-21T23:34:17.817Z,99497.84
2022-11-21T23:36:53.120Z,99494.88
2022-11-21T23:39:27.481Z,99497.69
2022-11-21T23:42:01.660Z,99492.59
2022-11-21T23:44:35.297Z,99484.78
2022-11-21T23:47:08.783Z,99466.63
2022-11-21T23:49:46.097Z,99458.22
2022-11-21T23:52:24.902Z,99453.34
2022-11-21T23:54:58.797Z,99447.63
2022-11-21T23:57:32.380Z,99454.00
